sensor_id;sensor_type;location;lat;lon;timestamp;pressure;altitude;pressure_sealevel;temperature;humidity
73941;BME280;62294;48.554;10.202;2023-01-28T00:00:35;96523.59;;;-2.22;100.00
73941;BME280;62294;48.554;10.202;2023-01-28T00:03:01;96518.16;;;-2.09;100.00
73941;BME280;62294;48.554;10.202;2023-01-28T00:05:28;96515.53;;;-2.19;100.00
73941;BME280;62294;48.554;10.202;2023-01-28T00:07:55;96517.81;;;-2.26;100.00
73941;BME280;62294;48.554;10.202;2023-01-28T00:10:23;96518.13;;;-2.19;100.00
73941;BME280;62294;48.554;10.202;2023-01-28T00:12:49;96511.50;;;-2.23;100.00
73941;BME280;62294;48.554;10.202;2023-01-28T00:15:16;96516.22;;;-2.17;100.00
73941;BME280;62294;48.554;10.202;2023-01-28T00:17:43;96508.41;;;-2.17;100.00
73941;BME280;62294;48.554;10.202;2023-01-28T00:20:09;96510.47;;;-2.11;100.00
73941;BME280;62294;48.554;10.202;2023-01-28T00:22:36;96505.72;;;-2.06;100.00
73941;BME280;62294;48.554;10.202;2023-01-28T00:25:02;96506.41;;;-2.04;100.00
73941;BME280;62294;48.554;10.202;2023-01-28T00:27:29;96501.72;;;-2.10;100.00
73941;BME280;62294;48.554;10.202;2023-01-28T00:29:57;96507.28;;;-2.24;100.00
73941;BME280;62294;48.554;10.202;2023-01-28T00:32:23;96504.44;;;-2.11;100.00
73941;BME280;62294;48.554;10.202;2023-01-28T00:34:49;96517.59;;;-2.13;100.00
73941;BME280;62294;48.554;10.202;2023-01-28T00:37:16;96521.44;;;-2.17;100.00
73941;BME280;62294;48.554;10.202;2023-01-28T00:39:42;96529.16;;;-2.06;100.00
73941;BME280;62294;48.554;10.202;2023-01-28T00:42:08;96518.03;;;-2.08;100.00
73941;BME280;62294;48.554;10.202;2023-01-28T00:44:35;96516.16;;;-2.27;100.00
73941;BME280;62294;48.554;10.202;2023-01-28T00:47:02;96522.16;;;-2.05;100.00
73941;BME280;62294;48.554;10.202;2023-01-28T00:49:28;96514.34;;;-2.05;100.00
73941;BME280;62294;48.554;10.202;2023-01-28T00:51:56;96511.41;;;-2.22;100.00
73941;BME280;62294;48.554;10.202;2023-01-28T00:54:23;96518.88;;;-2.28;100.00
73941;BME280;62294;48.554;10.202;2023-01-28T00:56:49;96511.41;;;-2.22;100.00
73941;BME280;62294;48.554;10.202;2023-01-28T00:59:16;96507.19;;;-2.13;100.00
73941;BME280;62294;48.554;10.202;2023-01-28T01:01:42;96511.72;;;-2.15;100.00
73941;BME280;62294;48.554;10.202;2023-01-28T01:04:09;96511.25;;;-2.20;100.00
73941;BME280;62294;48.554;10.202;2023-01-28T01:06:38;96518.13;;;-2.19;100.00
73941;BME280;62294;48.554;10.202;2023-01-28T01:09:07;96507.50;;;-2.06;100.00
73941;BME280;62294;48.554;10.202;2023-01-28T01:11:34;96517.03;;;-2.17;100.00
73941;BME280;62294;48.554;10.202;2023-01-28T01:14:01;96512.66;;;-2.16;100.00
73941;BME280;62294;48.554;10.202;2023-01-28T01:16:30;96523.00;;;-2.26;100.00
73941;BME280;62294;48.554;10.202;2023-01-28T01:19:02;96517.84;;;-2.16;100.00
73941;BME280;62294;48.554;10.202;2023-01-28T01:21:29;96524.19;;;-2.09;100.00
73941;BME280;62294;48.554;10.202;2023-01-28T01:23:55;96523.41;;;-2.00;100.00
73941;BME280;62294;48.554;10.202;2023-01-28T01:26:23;96523.66;;;-2.03;100.00
73941;BME280;62294;48.554;10.202;2023-01-28T01:28:51;96527.53;;;-1.97;100.00
73941;BME280;62294;48.554;10.202;2023-01-28T01:31:19;96525.94;;;-2.19;100.00
73941;BME280;62294;48.554;10.202;2023-01-28T01:33:47;96528.34;;;-2.27;100.00
73941;BME280;62294;48.554;10.202;2023-01-28T01:36:16;96529.50;;;-2.20;100.00
73941;BME280;62294;48.554;10.202;2023-01-28T01:38:45;96529.97;;;-2.05;100.00
73941;BME280;62294;48.554;10.202;2023-01-28T01:41:22;96533.66;;;-2.08;100.00
73941;BME280;62294;48.554;10.202;2023-01-28T01:43:58;96530.03;;;-2.26;100.00
73941;BME280;62294;48.554;10.202;2023-01-28T01:46:42;96533.75;;;-2.19;100.00
73941;BME280;62294;48.554;10.202;2023-01-28T01:49:16;96542.25;;;-2.17;100.00
73941;BME280;62294;48.554;10.202;2023-01-28T01:51:46;96540.59;;;-2.18;100.00
73941;BME280;62294;48.554;10.202;2023-01-28T01:54:14;96545.91;;;-1.99;100.00
73941;BME280;62294;48.554;10.202;2023-01-28T01:56:43;96543.81;;;-2.05;100.00
73941;BME280;62294;48.554;10.202;2023-01-28T01:59:16;96539.38;;;-2.14;100.00
73941;BME280;62294;48.554;10.202;2023-01-28T02:01:44;96546.38;;;-2.14;100.00
73941;BME280;62294;48.554;10.202;2023-01-28T02:04:16;96548.16;;;-2.15;100.00
73941;BME280;62294;48.554;10.202;2023-01-28T02:06:43;96542.44;;;-2.30;100.00
73941;BME280;62294;48.554;10.202;2023-01-28T02:09:32;96540.06;;;-2.12;100.00
73941;BME280;62294;48.554;10.202;2023-01-28T02:12:15;96539.47;;;-2.25;100.00
73941;BME280;62294;48.554;10.202;2023-01-28T02:17:30;96536.97;;;-2.06;100.00
73941;BME280;62294;48.554;10.202;2023-01-28T02:20:06;96534.00;;;-2.22;100.00
73941;BME280;62294;48.554;10.202;2023-01-28T02:29:06;96551.16;;;-2.20;100.00
73941;BME280;62294;48.554;10.202;2023-01-28T02:31:48;96552.59;;;-2.06;100.00
73941;BME280;62294;48.554;10.202;2023-01-28T02:34:36;96556.34;;;-1.99;100.00
73941;BME280;62294;48.554;10.202;2023-01-28T02:37:05;96551.00;;;-2.18;100.00
73941;BME280;62294;48.554;10.202;2023-01-28T02:39:39;96555.69;;;-2.12;100.00
73941;BME280;62294;48.554;10.202;2023-01-28T02:44:41;96550.44;;;-2.01;100.00
73941;BME280;62294;48.554;10.202;2023-01-28T02:47:11;96551.13;;;-1.99;100.00
73941;BME280;62294;48.554;10.202;2023-01-28T02:49:59;96547.81;;;-2.01;100.00
73941;BME280;62294;48.554;10.202;2023-01-28T03:01:11;96549.81;;;-1.84;100.00
73941;BME280;62294;48.554;10.202;2023-01-28T03:03:58;96543.16;;;-1.97;100.00
73941;BME280;62294;48.554;10.202;2023-01-28T03:06:36;96545.22;;;-2.01;100.00
73941;BME280;62294;48.554;10.202;2023-01-28T03:09:06;96548.72;;;-1.81;100.00
73941;BME280;62294;48.554;10.202;2023-01-28T03:12:02;96541.84;;;-1.92;100.00
73941;BME280;62294;48.554;10.202;2023-01-28T03:14:51;96545.72;;;-2.07;100.00
73941;BME280;62294;48.554;10.202;2023-01-28T03:17:56;96554.66;;;-2.00;100.00
73941;BME280;62294;48.554;10.202;2023-01-28T03:23:57;96558.56;;;-1.85;100.00
73941;BME280;62294;48.554;10.202;2023-01-28T03:29:58;96557.97;;;-1.98;100.00
73941;BME280;62294;48.554;10.202;2023-01-28T03:32:45;96562.09;;;-1.95;100.00
73941;BME280;62294;48.554;10.202;2023-01-28T03:35:32;96558.84;;;-1.88;100.00
73941;BME280;62294;48.554;10.202;2023-01-28T03:38:19;96553.53;;;-2.07;100.00
73941;BME280;62294;48.554;10.202;2023-01-28T03:40:50;96561.53;;;-1.99;100.00
73941;BME280;62294;48.554;10.202;2023-01-28T03:43:16;96556.75;;;-1.94;100.00
73941;BME280;62294;48.554;10.202;2023-01-28T03:45:43;96562.09;;;-1.95;100.00
73941;BME280;62294;48.554;10.202;2023-01-28T03:48:12;96569.34;;;-1.99;100.00
73941;BME280;62294;48.554;10.202;2023-01-28T03:50:40;96565.78;;;-1.98;100.00
73941;BME280;62294;48.554;10.202;2023-01-28T03:53:06;96568.66;;;-2.01;100.00
73941;BME280;62294;48.554;10.202;2023-01-28T03:55:42;96571.25;;;-2.01;100.00
73941;BME280;62294;48.554;10.202;2023-01-28T03:58:10;96565.88;;;-2.09;100.00
73941;BME280;62294;48.554;10.202;2023-01-28T04:00:38;96574.97;;;-1.94;100.00
73941;BME280;62294;48.554;10.202;2023-01-28T04:03:10;96572.41;;;-1.84;100.00
73941;BME280;62294;48.554;10.202;2023-01-28T04:05:59;96574.03;;;-1.93;100.00
73941;BME280;62294;48.554;10.202;2023-01-28T04:08:26;96572.13;;;-1.91;100.00
73941;BME280;62294;48.554;10.202;2023-01-28T04:10:53;96578.31;;;-1.92;100.00
73941;BME280;62294;48.554;10.202;2023-01-28T04:13:19;96585.09;;;-2.00;100.00
73941;BME280;62294;48.554;10.202;2023-01-28T04:15:46;96582.63;;;-2.02;100.00
73941;BME280;62294;48.554;10.202;2023-01-28T04:18:14;96574.13;;;-2.04;100.00
73941;BME280;62294;48.554;10.202;2023-01-28T04:20:40;96577.66;;;-2.05;100.00
73941;BME280;62294;48.554;10.202;2023-01-28T04:23:07;96578.34;;;-2.03;100.00
73941;BME280;62294;48.554;10.202;2023-01-28T04:25:34;96579.13;;;-2.12;100.00
73941;BME280;62294;48.554;10.202;2023-01-28T04:28:00;96581.03;;;-2.14;100.00
73941;BME280;62294;48.554;10.202;2023-01-28T04:30:27;96590.56;;;-2.03;100.00
73941;BME280;62294;48.554;10.202;2023-01-28T04:32:54;96588.72;;;-1.92;100.00
73941;BME280;62294;48.554;10.202;2023-01-28T04:35:20;96581.94;;;-2.04;100.00
73941;BME280;62294;48.554;10.202;2023-01-28T04:37:47;96586.91;;;-2.01;100.00
73941;BME280;62294;48.554;10.202;2023-01-28T04:40:14;96598.25;;;-2.02;100.00
73941;BME280;62294;48.554;10.202;2023-01-28T04:42:40;96592.78;;;-1.99;100.00
73941;BME280;62294;48.554;10.202;2023-01-28T04:45:07;96594.72;;;-2.01;100.00
73941;BME280;62294;48.554;10.202;2023-01-28T04:47:33;96597.78;;;-1.86;100.00
73941;BME280;62294;48.554;10.202;2023-01-28T04:50:00;96591.97;;;-1.99;100.00
73941;BME280;62294;48.554;10.202;2023-01-28T04:52:26;96601.78;;;-2.03;100.00
73941;BME280;62294;48.554;10.202;2023-01-28T04:54:54;96600.72;;;-2.00;100.00
73941;BME280;62294;48.554;10.202;2023-01-28T04:57:20;96601.84;;;-1.93;100.00
73941;BME280;62294;48.554;10.202;2023-01-28T04:59:47;96605.91;;;-2.10;100.00
73941;BME280;62294;48.554;10.202;2023-01-28T05:02:13;96602.06;;;-2.06;100.00
73941;BME280;62294;48.554;10.202;2023-01-28T05:04:40;96618.91;;;-2.10;100.00
73941;BME280;62294;48.554;10.202;2023-01-28T05:07:06;96607.91;;;-1.93;100.00
73941;BME280;62294;48.554;10.202;2023-01-28T05:09:33;96619.34;;;-2.05;100.00
73941;BME280;62294;48.554;10.202;2023-01-28T05:11:59;96625.75;;;-1.88;100.00
73941;BME280;62294;48.554;10.202;2023-01-28T05:14:26;96616.66;;;-1.94;100.00
73941;BME280;62294;48.554;10.202;2023-01-28T05:16:52;96629.81;;;-1.95;100.00
73941;BME280;62294;48.554;10.202;2023-01-28T05:19:19;96627.59;;;-2.00;100.00
73941;BME280;62294;48.554;10.202;2023-01-28T05:21:45;96627.72;;;-2.01;100.00
73941;BME280;62294;48.554;10.202;2023-01-28T05:24:12;96635.72;;;-2.14;100.00
73941;BME280;62294;48.554;10.202;2023-01-28T05:26:39;96636.03;;;-2.07;100.00
73941;BME280;62294;48.554;10.202;2023-01-28T05:29:06;96634.03;;;-2.04;100.00
73941;BME280;62294;48.554;10.202;2023-01-28T05:31:33;96628.94;;;-2.05;100.00
73941;BME280;62294;48.554;10.202;2023-01-28T05:33:59;96630.19;;;-2.00;100.00
73941;BME280;62294;48.554;10.202;2023-01-28T05:36:25;96632.50;;;-2.06;100.00
73941;BME280;62294;48.554;10.202;2023-01-28T05:38:52;96628.38;;;-2.09;100.00
73941;BME280;62294;48.554;10.202;2023-01-28T05:41:19;96628.28;;;-1.98;100.00
73941;BME280;62294;48.554;10.202;2023-01-28T05:43:45;96633.88;;;-2.02;100.00
73941;BME280;62294;48.554;10.202;2023-01-28T05:46:12;96634.47;;;-1.99;100.00
73941;BME280;62294;48.554;10.202;2023-01-28T05:48:38;96624.28;;;-2.02;100.00
73941;BME280;62294;48.554;10.202;2023-01-28T05:51:05;96625.44;;;-1.95;100.00
73941;BME280;62294;48.554;10.202;2023-01-28T05:53:31;96628.34;;;-1.88;100.00
73941;BME280;62294;48.554;10.202;2023-01-28T05:55:58;96632.47;;;-1.86;100.00
73941;BME280;62294;48.554;10.202;2023-01-28T05:58:24;96632.66;;;-1.78;100.00
73941;BME280;62294;48.554;10.202;2023-01-28T06:00:54;96630.88;;;-1.77;100.00
73941;BME280;62294;48.554;10.202;2023-01-28T06:03:22;96630.75;;;-1.76;100.00
73941;BME280;62294;48.554;10.202;2023-01-28T06:05:48;96634.13;;;-1.55;100.00
73941;BME280;62294;48.554;10.202;2023-01-28T06:08:15;96629.47;;;-1.61;100.00
73941;BME280;62294;48.554;10.202;2023-01-28T06:10:41;96638.22;;;-1.62;100.00
73941;BME280;62294;48.554;10.202;2023-01-28T06:13:07;96640.97;;;-1.63;100.00
73941;BME280;62294;48.554;10.202;2023-01-28T06:15:34;96640.47;;;-1.78;100.00
73941;BME280;62294;48.554;10.202;2023-01-28T06:18:01;96647.91;;;-1.94;100.00
73941;BME280;62294;48.554;10.202;2023-01-28T06:20:27;96643.72;;;-1.85;100.00
73941;BME280;62294;48.554;10.202;2023-01-28T06:22:54;96654.63;;;-1.71;100.00
73941;BME280;62294;48.554;10.202;2023-01-28T06:25:21;96656.06;;;-1.87;100.00
73941;BME280;62294;48.554;10.202;2023-01-28T06:27:47;96651.09;;;-1.70;100.00
73941;BME280;62294;48.554;10.202;2023-01-28T06:30:14;96654.91;;;-1.74;100.00
73941;BME280;62294;48.554;10.202;2023-01-28T06:32:41;96664.56;;;-1.65;100.00
73941;BME280;62294;48.554;10.202;2023-01-28T06:35:07;96661.97;;;-1.85;100.00
73941;BME280;62294;48.554;10.202;2023-01-28T06:37:34;96658.97;;;-1.81;100.00
73941;BME280;62294;48.554;10.202;2023-01-28T06:40:02;96663.88;;;-1.87;100.00
73941;BME280;62294;48.554;10.202;2023-01-28T06:42:28;96680.22;;;-1.85;100.00
73941;BME280;62294;48.554;10.202;2023-01-28T06:44:55;96676.44;;;-1.72;100.00
73941;BME280;62294;48.554;10.202;2023-01-28T06:47:21;96684.50;;;-1.75;100.00
73941;BME280;62294;48.554;10.202;2023-01-28T06:49:47;96691.78;;;-1.78;100.00
73941;BME280;62294;48.554;10.202;2023-01-28T06:52:14;96684.00;;;-1.69;100.00
73941;BME280;62294;48.554;10.202;2023-01-28T06:54:40;96693.09;;;-1.84;100.00
73941;BME280;62294;48.554;10.202;2023-01-28T06:57:07;96696.22;;;-1.90;100.00
73941;BME280;62294;48.554;10.202;2023-01-28T06:59:34;96696.84;;;-1.77;100.00
73941;BME280;62294;48.554;10.202;2023-01-28T07:02:00;96707.34;;;-1.88;100.00
73941;BME280;62294;48.554;10.202;2023-01-28T07:04:26;96709.66;;;-1.85;100.00
73941;BME280;62294;48.554;10.202;2023-01-28T07:06:53;96708.94;;;-1.76;100.00
73941;BME280;62294;48.554;10.202;2023-01-28T07:09:20;96705.81;;;-1.70;100.00
73941;BME280;62294;48.554;10.202;2023-01-28T07:11:46;96713.09;;;-1.84;100.00
73941;BME280;62294;48.554;10.202;2023-01-28T07:14:13;96717.44;;;-1.74;100.00
73941;BME280;62294;48.554;10.202;2023-01-28T07:16:39;96717.69;;;-1.77;100.00
73941;BME280;62294;48.554;10.202;2023-01-28T07:19:05;96712.72;;;-1.59;100.00
73941;BME280;62294;48.554;10.202;2023-01-28T07:21:32;96718.06;;;-1.61;100.00
73941;BME280;62294;48.554;10.202;2023-01-28T07:23:58;96713.69;;;-1.81;100.00
73941;BME280;62294;48.554;10.202;2023-01-28T07:26:25;96720.22;;;-1.86;100.00
73941;BME280;62294;48.554;10.202;2023-01-28T07:28:52;96717.31;;;-1.72;100.00
73941;BME280;62294;48.554;10.202;2023-01-28T07:31:18;96727.59;;;-1.71;100.00
73941;BME280;62294;48.554;10.202;2023-01-28T07:33:45;96719.34;;;-1.76;100.00
73941;BME280;62294;48.554;10.202;2023-01-28T07:36:11;96732.09;;;-1.73;100.00
73941;BME280;62294;48.554;10.202;2023-01-28T07:38:38;96724.88;;;-1.69;100.00
73941;BME280;62294;48.554;10.202;2023-01-28T07:41:04;96726.78;;;-1.71;100.00
73941;BME280;62294;48.554;10.202;2023-01-28T07:43:31;96720.91;;;-1.64;100.00
73941;BME280;62294;48.554;10.202;2023-01-28T07:46:00;96729.44;;;-1.82;100.00
73941;BME280;62294;48.554;10.202;2023-01-28T07:48:27;96742.28;;;-1.90;100.00
73941;BME280;62294;48.554;10.202;2023-01-28T07:50:57;96739.28;;;-1.86;100.00
73941;BME280;62294;48.554;10.202;2023-01-28T07:53:23;96741.84;;;-1.75;100.00
73941;BME280;62294;48.554;10.202;2023-01-28T07:55:50;96747.88;;;-1.74;100.00
73941;BME280;62294;48.554;10.202;2023-01-28T07:58:16;96744.91;;;-1.70;100.00
73941;BME280;62294;48.554;10.202;2023-01-28T08:00:43;96747.94;;;-1.65;100.00
73941;BME280;62294;48.554;10.202;2023-01-28T08:03:12;96746.91;;;-1.53;100.00
73941;BME280;62294;48.554;10.202;2023-01-28T08:05:46;96745.44;;;-1.46;100.00
73941;BME280;62294;48.554;10.202;2023-01-28T08:08:14;96753.53;;;-1.49;100.00
73941;BME280;62294;48.554;10.202;2023-01-28T08:10:41;96751.88;;;-1.50;100.00
73941;BME280;62294;48.554;10.202;2023-01-28T08:13:09;96750.97;;;-1.60;100.00
73941;BME280;62294;48.554;10.202;2023-01-28T08:15:37;96760.72;;;-1.62;100.00
73941;BME280;62294;48.554;10.202;2023-01-28T08:18:06;96753.97;;;-1.44;100.00
73941;BME280;62294;48.554;10.202;2023-01-28T08:20:33;96752.59;;;-1.17;100.00
73941;BME280;62294;48.554;10.202;2023-01-28T08:23:13;96760.00;;;-1.22;100.00
73941;BME280;62294;48.554;10.202;2023-01-28T08:25:40;96757.63;;;-1.25;100.00
73941;BME280;62294;48.554;10.202;2023-01-28T08:28:08;96754.31;;;-1.27;100.00
73941;BME280;62294;48.554;10.202;2023-01-28T08:30:36;96764.97;;;-1.19;100.00
73941;BME280;62294;48.554;10.202;2023-01-28T08:33:05;96766.59;;;-1.18;100.00
73941;BME280;62294;48.554;10.202;2023-01-28T08:35:33;96773.47;;;-1.17;100.00
73941;BME280;62294;48.554;10.202;2023-01-28T08:38:01;96780.22;;;-1.15;100.00
73941;BME280;62294;48.554;10.202;2023-01-28T08:40:28;96772.59;;;-1.27;100.00
73941;BME280;62294;48.554;10.202;2023-01-28T08:42:56;96778.63;;;-1.27;100.00
73941;BME280;62294;48.554;10.202;2023-01-28T08:45:24;96772.16;;;-1.32;100.00
73941;BME280;62294;48.554;10.202;2023-01-28T08:47:55;96777.31;;;-1.21;100.00
73941;BME280;62294;48.554;10.202;2023-01-28T08:50:23;96772.16;;;-1.02;100.00
73941;BME280;62294;48.554;10.202;2023-01-28T08:52:59;96787.72;;;-1.01;100.00
73941;BME280;62294;48.554;10.202;2023-01-28T08:55:27;96774.34;;;-1.07;100.00
73941;BME280;62294;48.554;10.202;2023-01-28T08:57:53;96772.78;;;-0.89;100.00
73941;BME280;62294;48.554;10.202;2023-01-28T09:00:22;96780.88;;;-0.92;100.00
73941;BME280;62294;48.554;10.202;2023-01-28T09:02:52;96782.78;;;-0.94;100.00
73941;BME280;62294;48.554;10.202;2023-01-28T09:05:19;96789.28;;;-1.09;100.00
73941;BME280;62294;48.554;10.202;2023-01-28T09:07:46;96781.78;;;-1.03;100.00
73941;BME280;62294;48.554;10.202;2023-01-28T09:10:13;96784.44;;;-0.93;100.00
73941;BME280;62294;48.554;10.202;2023-01-28T09:12:43;96789.94;;;-0.96;100.00
73941;BME280;62294;48.554;10.202;2023-01-28T09:15:10;96785.25;;;-0.62;100.00
73941;BME280;62294;48.554;10.202;2023-01-28T09:17:37;96787.91;;;-0.83;100.00
73941;BME280;62294;48.554;10.202;2023-01-28T09:20:04;96784.44;;;-0.53;100.00
73941;BME280;62294;48.554;10.202;2023-01-28T09:22:31;96794.16;;;-0.16;100.00
73941;BME280;62294;48.554;10.202;2023-01-28T09:24:58;96797.94;;;-0.39;100.00
73941;BME280;62294;48.554;10.202;2023-01-28T09:27:25;96788.28;;;-0.57;100.00
73941;BME280;62294;48.554;10.202;2023-01-28T09:29:51;96787.22;;;-0.45;100.00
73941;BME280;62294;48.554;10.202;2023-01-28T09:32:18;96790.22;;;-0.59;100.00
73941;BME280;62294;48.554;10.202;2023-01-28T09:34:45;96796.34;;;-1.00;100.00
73941;BME280;62294;48.554;10.202;2023-01-28T09:37:11;96789.28;;;-0.79;100.00
73941;BME280;62294;48.554;10.202;2023-01-28T09:39:37;96794.72;;;-0.61;100.00
73941;BME280;62294;48.554;10.202;2023-01-28T09:42:26;96797.28;;;-0.81;100.00
73941;BME280;62294;48.554;10.202;2023-01-28T09:47:45;96806.16;;;-0.53;100.00
73941;BME280;62294;48.554;10.202;2023-01-28T09:50:24;96805.41;;;-0.34;100.00
73941;BME280;62294;48.554;10.202;2023-01-28T09:52:55;96804.09;;;-0.49;100.00
73941;BME280;62294;48.554;10.202;2023-01-28T09:57:51;96808.34;;;-0.58;100.00
73941;BME280;62294;48.554;10.202;2023-01-28T10:00:25;96801.34;;;-0.57;100.00
73941;BME280;62294;48.554;10.202;2023-01-28T10:03:07;96803.78;;;-0.26;100.00
73941;BME280;62294;48.554;10.202;2023-01-28T10:06:10;96806.78;;;-0.30;100.00
73941;BME280;62294;48.554;10.202;2023-01-28T10:17:25;96803.78;;;-0.16;100.00
73941;BME280;62294;48.554;10.202;2023-01-28T10:20:02;96801.50;;;-0.49;100.00
73941;BME280;62294;48.554;10.202;2023-01-28T10:22:38;96807.28;;;-0.46;100.00
73941;BME280;62294;48.554;10.202;2023-01-28T10:25:30;96812.84;;;-0.30;100.00
73941;BME280;62294;48.554;10.202;2023-01-28T10:27:59;96808.41;;;-0.29;100.00
73941;BME280;62294;48.554;10.202;2023-01-28T10:30:29;96798.13;;;-0.31;100.00
73941;BME280;62294;48.554;10.202;2023-01-28T10:35:48;96804.19;;;-0.11;100.00
73941;BME280;62294;48.554;10.202;2023-01-28T10:38:19;96799.66;;;0.00;100.00
73941;BME280;62294;48.554;10.202;2023-01-28T10:40:46;96795.84;;;0.33;100.00
73941;BME280;62294;48.554;10.202;2023-01-28T10:43:19;96790.06;;;0.39;100.00
73941;BME280;62294;48.554;10.202;2023-01-28T10:46:13;96786.06;;;0.54;100.00
73941;BME280;62294;48.554;10.202;2023-01-28T10:48:46;96794.19;;;0.61;100.00
73941;BME280;62294;48.554;10.202;2023-01-28T10:51:14;96788.16;;;0.22;100.00
73941;BME280;62294;48.554;10.202;2023-01-28T10:53:42;96798.16;;;-0.12;100.00
73941;BME280;62294;48.554;10.202;2023-01-28T10:56:16;96782.06;;;-0.07;100.00
73941;BME280;62294;48.554;10.202;2023-01-28T10:58:56;96783.44;;;0.26;100.00
73941;BME280;62294;48.554;10.202;2023-01-28T11:04:14;96790.06;;;0.39;100.00
73941;BME280;62294;48.554;10.202;2023-01-28T11:06:51;96782.03;;;0.79;100.00
73941;BME280;62294;48.554;10.202;2023-01-28T11:09:28;96792.94;;;0.65;100.00
73941;BME280;62294;48.554;10.202;2023-01-28T11:11:57;96792.50;;;0.79;100.00
73941;BME280;62294;48.554;10.202;2023-01-28T11:14:26;96781.63;;;1.20;100.00
73941;BME280;62294;48.554;10.202;2023-01-28T11:16:55;96776.28;;;0.37;100.00
73941;BME280;62294;48.554;10.202;2023-01-28T11:19:28;96773.81;;;0.36;100.00
73941;BME280;62294;48.554;10.202;2023-01-28T11:21:56;96779.28;;;0.71;100.00
73941;BME280;62294;48.554;10.202;2023-01-28T11:24:33;96774.84;;;0.81;100.00
73941;BME280;62294;48.554;10.202;2023-01-28T11:27:11;96774.19;;;0.60;100.00
73941;BME280;62294;48.554;10.202;2023-01-28T11:29:39;96774.03;;;0.71;100.00
73941;BME280;62294;48.554;10.202;2023-01-28T11:32:18;96768.03;;;0.61;100.00
73941;BME280;62294;48.554;10.202;2023-01-28T11:34:50;96767.63;;;1.12;100.00
73941;BME280;62294;48.554;10.202;2023-01-28T11:37:20;96772.31;;;0.43;100.00
73941;BME280;62294;48.554;10.202;2023-01-28T11:39:48;96773.00;;;0.45;100.00
73941;BME280;62294;48.554;10.202;2023-01-28T11:42:25;96775.13;;;1.24;100.00
73941;BME280;62294;48.554;10.202;2023-01-28T11:44:52;96774.44;;;0.76;100.00
73941;BME280;62294;48.554;10.202;2023-01-28T11:47:34;96789.63;;;0.63;100.00
73941;BME280;62294;48.554;10.202;2023-01-28T11:50:38;96785.09;;;0.55;100.00
73941;BME280;62294;48.554;10.202;2023-01-28T11:53:37;96783.31;;;0.56;100.00
73941;BME280;62294;48.554;10.202;2023-01-28T12:01:19;96784.50;;;0.71;100.00
73941;BME280;62294;48.554;10.202;2023-01-28T12:07:06;96776.28;;;0.47;100.00
73941;BME280;62294;48.554;10.202;2023-01-28T12:20:51;96780.47;;;1.32;100.00
73941;BME280;62294;48.554;10.202;2023-01-28T12:23:32;96789.13;;;0.96;100.00
73941;BME280;62294;48.554;10.202;2023-01-28T12:42:44;96776.56;;;0.44;100.00
73941;BME280;62294;48.554;10.202;2023-01-28T12:47:48;96763.56;;;0.71;100.00
73941;BME280;62294;48.554;10.202;2023-01-28T12:50:18;96766.31;;;0.79;100.00
73941;BME280;62294;48.554;10.202;2023-01-28T12:52:49;96764.72;;;0.59;100.00
73941;BME280;62294;48.554;10.202;2023-01-28T12:55:26;96765.88;;;0.93;100.00
73941;BME280;62294;48.554;10.202;2023-01-28T12:58:00;96765.91;;;0.74;100.00
73941;BME280;62294;48.554;10.202;2023-01-28T13:00:35;96771.00;;;1.22;100.00
73941;BME280;62294;48.554;10.202;2023-01-28T13:03:26;96771.41;;;1.54;100.00
73941;BME280;62294;48.554;10.202;2023-01-28T13:06:02;96762.19;;;1.23;100.00
73941;BME280;62294;48.554;10.202;2023-01-28T13:08:31;96773.56;;;1.41;100.00
73941;BME280;62294;48.554;10.202;2023-01-28T13:11:00;96772.72;;;1.40;100.00
73941;BME280;62294;48.554;10.202;2023-01-28T13:13:35;96776.44;;;1.11;100.00
73941;BME280;62294;48.554;10.202;2023-01-28T13:16:06;96775.44;;;0.75;100.00
73941;BME280;62294;48.554;10.202;2023-01-28T13:28:46;96784.44;;;0.15;100.00
73941;BME280;62294;48.554;10.202;2023-01-28T13:31:16;96792.00;;;0.18;100.00
73941;BME280;62294;48.554;10.202;2023-01-28T13:36:27;96792.81;;;0.09;100.00
73941;BME280;62294;48.554;10.202;2023-01-28T13:41:49;96789.22;;;0.10;100.00
73941;BME280;62294;48.554;10.202;2023-01-28T13:49:49;96779.59;;;0.30;100.00
73941;BME280;62294;48.554;10.202;2023-01-28T13:52:27;96791.97;;;0.47;100.00
73941;BME280;62294;48.554;10.202;2023-01-28T13:55:24;96797.91;;;0.58;100.00
73941;BME280;62294;48.554;10.202;2023-01-28T13:59:05;96790.59;;;0.62;100.00
73941;BME280;62294;48.554;10.202;2023-01-28T14:01:20;96802.19;;;0.50;100.00
73941;BME280;62294;48.554;10.202;2023-01-28T14:04:26;96807.53;;;0.20;100.00
73941;BME280;62294;48.554;10.202;2023-01-28T14:15:42;96809.16;;;-0.08;100.00
73941;BME280;62294;48.554;10.202;2023-01-28T14:18:34;96809.31;;;0.19;100.00
73941;BME280;62294;48.554;10.202;2023-01-28T14:21:09;96809.84;;;-0.06;100.00
73941;BME280;62294;48.554;10.202;2023-01-28T14:23:37;96822.66;;;0.07;100.00
73941;BME280;62294;48.554;10.202;2023-01-28T14:31:45;96821.09;;;-0.15;100.00
73941;BME280;62294;48.554;10.202;2023-01-28T14:34:29;96825.13;;;-0.02;100.00
73941;BME280;62294;48.554;10.202;2023-01-28T14:37:03;96826.75;;;-0.10;100.00
73941;BME280;62294;48.554;10.202;2023-01-28T14:42:42;96836.22;;;-0.09;100.00
73941;BME280;62294;48.554;10.202;2023-01-28T14:48:31;96831.03;;;0.00;100.00
73941;BME280;62294;48.554;10.202;2023-01-28T14:51:21;96837.78;;;0.13;100.00
73941;BME280;62294;48.554;10.202;2023-01-28T14:54:27;96835.47;;;0.19;100.00
73941;BME280;62294;48.554;10.202;2023-01-28T14:59:59;96840.66;;;-0.10;100.00
73941;BME280;62294;48.554;10.202;2023-01-28T15:02:28;96846.13;;;-0.13;100.00
73941;BME280;62294;48.554;10.202;2023-01-28T15:05:10;96850.41;;;-0.12;100.00
73941;BME280;62294;48.554;10.202;2023-01-28T15:07:43;96857.03;;;-0.08;100.00
73941;BME280;62294;48.554;10.202;2023-01-28T15:10:27;96849.94;;;-0.26;100.00
73941;BME280;62294;48.554;10.202;2023-01-28T15:13:25;96851.03;;;-0.29;100.00